createdAt,value
2018-12-23T00:06:49.152Z,62.4
2018-12-23T00:23:34.927Z,62.4
2018-12-23T00:40:20.772Z,62.4
2018-12-23T00:57:06.468Z,62.4
2018-12-23T01:13:52.078Z,62.0
2018-12-23T01:30:37.592Z,62.0
2018-12-23T01:47:23.223Z,62.0
2018-12-23T02:04:09.208Z,62.0
2018-12-23T02:20:54.268Z,61.2
2018-12-23T02:37:39.775Z,61.2
2018-12-23T02:54:25.322Z,61.2
2018-12-23T03:11:10.825Z,61.2
2018-12-23T03:27:56.106Z,61.2
2018-12-23T03:44:41.432Z,60.8
2018-12-23T04:01:26.739Z,60.8
2018-12-23T04:18:12.074Z,60.8
2018-12-23T04:34:57.275Z,60.8
2018-12-23T04:51:42.485Z,60.8
2018-12-23T05:08:27.673Z,60.4
2018-12-23T05:25:12.790Z,60.4
2018-12-23T05:41:58.243Z,60.4
2018-12-23T05:58:43.133Z,60.4
2018-12-23T06:15:28.235Z,60.4
2018-12-23T06:32:13.367Z,60.4
2018-12-23T06:48:58.482Z,60.4
2018-12-23T07:05:43.565Z,59.6
2018-12-23T07:22:28.442Z,59.6
2018-12-23T07:39:13.491Z,60.8
2018-12-23T07:55:59.446Z,60.8
2018-12-23T08:12:44.127Z,60.4
2018-12-23T08:29:29.534Z,60.8
2018-12-23T08:46:14.846Z,60.8
2018-12-23T09:03:00.167Z,60.8
2018-12-23T09:19:45.554Z,61.2
2018-12-23T09:36:30.880Z,60.8
2018-12-23T09:53:16.145Z,60.8
2018-12-23T10:10:01.500Z,60.8
2018-12-23T10:26:46.832Z,60.8
2018-12-23T10:43:32.274Z,60.8
2018-12-23T11:00:17.860Z,60.4
2018-12-23T11:17:03.409Z,60.4
2018-12-23T11:33:48.837Z,60.4
2018-12-23T11:50:34.328Z,60.4
2018-12-23T12:07:19.773Z,60.0
2018-12-23T12:24:05.285Z,60.0
2018-12-23T12:40:52.309Z,60.0
2018-12-23T12:57:36.350Z,60.0
2018-12-23T13:14:21.899Z,59.6
2018-12-23T13:31:07.283Z,59.6
2018-12-23T13:47:52.864Z,59.6
2018-12-23T14:04:38.416Z,59.6
2018-12-23T14:21:23.986Z,59.6
2018-12-23T14:38:09.519Z,59.6
2018-12-23T14:54:54.945Z,59.2
2018-12-23T15:11:40.477Z,59.2
2018-12-23T15:28:25.980Z,58.8
2018-12-23T15:45:11.558Z,58.8
2018-12-23T16:01:57.056Z,58.8
2018-12-23T16:18:42.413Z,59.6
2018-12-23T16:35:27.750Z,59.6
2018-12-23T16:52:13.026Z,59.6
2018-12-23T17:08:58.540Z,59.6
2018-12-23T17:25:44.177Z,60.0
2018-12-23T17:42:29.703Z,60.0
2018-12-23T17:59:15.260Z,60.4
2018-12-23T18:16:00.704Z,60.4
2018-12-23T18:32:46.172Z,60.4
2018-12-23T18:49:31.915Z,60.0
2018-12-23T19:06:17.099Z,60.4
2018-12-23T19:23:02.506Z,60.0
2018-12-23T19:39:47.820Z,60.0
2018-12-23T19:56:33.159Z,60.0
2018-12-23T20:13:18.738Z,60.0
2018-12-23T20:30:04.097Z,60.0
2018-12-23T20:46:49.709Z,60.0
2018-12-23T21:03:35.572Z,60.0
2018-12-23T21:20:20.635Z,60.0
2018-12-23T21:37:05.993Z,60.0
2018-12-23T21:53:52.598Z,59.6
2018-12-23T22:10:36.941Z,59.6
2018-12-23T22:27:22.441Z,59.6
2018-12-23T22:44:07.809Z,59.6
2018-12-23T23:00:53.260Z,59.2
2018-12-23T23:17:38.519Z,59.2
2018-12-23T23:34:23.795Z,59.2
2018-12-23T23:51:09.033Z,59.2
